Aviation Digital Data Service (ADDS)

Output produced by METARs form (1826 UTC 22 November 2017)
found at http://www.aviationweather.gov/adds/metars/
 
TAF RJSK 221709Z 2218/2400 13005KT 8000 -SHRA FEW005 SCT010 BKN020 
     TEMPO 2218/2300 1500 SHRA BR FEW002 BKN005 BKN015 
     BECMG 2222/2300 30008KT 
     TEMPO 2300/2303 3000 SHRA BR FEW005 BKN008 BKN020 
     TEMPO 2309/2318 3000 -SHSN 
     TEMPO 2318/2400 0700 SHSN FEW002 BKN005 BKN008
       
TAF RJSA 221709Z 2218/2400 20010KT 8000 -SHRA FEW010 SCT020 BKN030 
     TEMPO 2218/2223 2000 SHRA BR FEW005 BKN008 BKN015 
     BECMG 2221/2223 26010KT 
     TEMPO 2303/2306 3000 SHRA BR FEW005 BKN008 BKN015 
     TEMPO 2309/2318 1500 -SHSN FEW005 BKN008 BKN015 
     TEMPO 2318/2400 0700 SHSN FEW002 BKN005 BKN008
       
TAF RJEC 221709Z 2218/2400 19016KT 9999 FEW008 BKN015 
     TEMPO 2218/2222 19018G28KT 3000 SHRA BR BKN008 BKN025 FEW025CB 
     BECMG 2222/2300 30010KT 
     TEMPO 2303/2309 2000 -SHSN 
     TEMPO 2315/2318 1500 -SHSN FEW005 BKN008 
     TEMPO 2318/2400 2000 -SHSN
       
RJFF 221800Z AUTO 32010KT 9999 SCT039 SCT044 BKN050 13/07 Q1014 RMK A2995
TAF RJFF 221711Z 2218/2400 15004KT 9999 FEW030 BKN045 
     BECMG 2218/2220 33016KT 
     TEMPO 2221/2303 31017G27KT 
     TEMPO 2309/2312 29015G25KT 
     BECMG 2321/2400 16008KT
       
TAF RJSF 221705Z 2218/2400 02003KT 3000 -SHRA BR FEW002 BKN006 BKN010 
     TEMPO 2218/2221 0700 SHRA FG FEW001 BKN003 BKN005 
     TEMPO 2221/2300 0500 -SHRA FG FEW001 BKN003 BKN005 
     BECMG 2300/2302 32012KT 9999 NSW FEW020 BKN040 
     TEMPO 2303/2306 32015G25KT 
     BECMG 2315/2318 16004KT
       
ROTM 221659Z 01012KT 9999 SCT010 SCT015 BKN030 21/18 A2996 RMK SLP135 STNPR29660 T02080181
TAF ROTM 2215/2315 36012G20KT 9999 FEW010 SCT015 BKN030 QNH2993INS 
     BECMG 2223/2301 36012G20KT 9999 SCT015 BKN030 QNH3003INS 
     BECMG 2309/2311 36012G20KT 9999 SCT015 BKN030 QNH3010INS T19/2221Z T24/2305Z
       
TAF RJCH 221713Z 2218/2400 24012KT 9999 FEW008 BKN025 
     BECMG 2218/2220 30012KT 
     TEMPO 2315/2400 28020G30KT 3000 -SHSN FEW005 BKN008
       
RJOA 221311Z 31004KT 3000 R28/P1800N BCFG BR FEW000 SCT002 BKN005 07/07 Q1014 RMK 1ST000 3ST002 5ST005 A2995 FG SE AND SW-W
TAF RJOA 221708Z 2218/2400 32008KT 9999 FEW020 BKN035 
     TEMPO 2218/2220 3000 BR BCFG FEW000 SCT005 BKN008 
     TEMPO 2300/2306 31017G27KT
       
RJAH 221819Z 28002KT 2000 -RA BR FEW002 BKN003 OVC030 07/07 Q1008 RMK 1ST002 5ST003 8SC030 A2979 VIS SE-SW 1600M
TAF RJAH 221706Z 2218/2400 33005KT 4000 -SHRA BR FEW005 BKN012 
     TEMPO 2218/2300 2000 SHRA BR FEW003 BKN005 
     TEMPO 2300/2303 FEW005 BKN008 
     BECMG 2303/2305 9999 NSW 
     BECMG 2318/2321 22006KT
       
TAF ROIG 221709Z 2218/2400 02018KT 9999 FEW010 SCT020 BKN040 
     TEMPO 2221/2306 02020G30KT
       
RJOI 221755Z 30004KT 9999 FEW030 SCT060 BKN200 09/08 A2991 RMK SLP127 60000 T00890078 10100 20089 58007
TAF AMD RJOI 2214/2309 32005KT 9000 BR FEW030 BKN100 620609 621504 QNH2987INS 
     TEMPO 2214/2218 -RA 
     BECMG 2218/2220 33015G25KT 9999 FEW025 SCT120 520006 QNH2996INS 
     FM230300 31014G20KT 9999 SCT030 BKN045 620304 530006 QNH2998INS 
     FM230700 32012G18KT 9999 FEW015 BKN030 600000 530006 541302 QNH3004INS T07/2221Z T12/2305Z AMD 1400
       
RJAW 221800Z 13014KT 9999 SCT015 23/20 Q1012 RMK 3CU015 A2989
TAF RJOC 221706Z 2218/2400 30015KT 9999 FEW020 BKN045 
     BECMG 2300/2302 30016G28KT 
     TEMPO 2306/2312 2500 -TSRAGS BR FEW008 SCT010 BKN020 FEW020CB 
     BECMG 2321/2400 23011KT
       
RODN 221756Z AUTO 36011G19KT 10SM FEW025 BKN037 20/17 A2995 RMK AO2 RAE1656 SLP148 P0000 60001 T02030165 10223 20203 52008
TAF RODN 221600Z 2216/2322 36012G18KT 9999 SCT015 BKN025 BKN055 QNH2991INS 
     BECMG 2311/2312 02012G18KT 9999 BKN025 BKN055 QNH3013INS TX24/2218Z TN18/2312Z
       
TAF RJFK 221707Z 2218/2400 32013KT 9999 FEW020 
     TEMPO 2223/2306 33017G28KT
       
RJFY 221811Z 30012KT 9999 FEW015 BKN100 14/05 Q1013 RMK 1CU015 5AC100 A2992
RJBB 221819Z AUTO 32008KT 250V010 5000 -RA BR BKN013 BKN019 OVC045 12/09 Q1011 RMK A2988
TAF RJBB 221706Z 2218/2400 35009KT 9999 FEW020 SCT040 
     TEMPO 2218/2220 3000 -SHRA BR FEW005 BKN008 BKN015 
     BECMG 2300/2302 31022KT 
     TEMPO 2303/2309 31024G35KT
       
RJTR 221818Z AUTO 35004KT 1 1/2SM -RA BR BKN009 OVC070 06/06 A2982 RMK AO2 CIG 008V010 SLP101 $
RJFR 221808Z 33019KT 9999 FEW030 SCT040 BKN050 12/05 Q1013 RMK 1CU030 4CU040 6SC050 A2993
TAF RJFR 221707Z 2218/2400 30010KT 9999 FEW030 SCT050 
     BECMG 2219/2221 31020KT 
     TEMPO 2220/2305 29020G30KT 
     TEMPO 2312/2318 29018G28KT 
     BECMG 2321/2400 21008KT
       
TAF RJOK 221706Z 2218/2400 35010KT 9999 FEW025 
     TEMPO 2300/2306 35019G30KT
       
RJNK 221800Z 20006KT 9999 FEW030 SCT050 BKN070 09/08 Q1010
TAF RJNK 221706Z 2218/2400 20006KT 8000 FEW008 BKN025 
     TEMPO 2218/2221 4000 -SHRA BR 
     BECMG 2220/2222 28016KT 
     TEMPO 2303/2309 28020G30KT 
     TEMPO 2312/2321 4000 TSRAGS BR FEW010 BKN020 FEW025CB
       
TAF RJFT 221708Z 2218/2400 15003KT 6000 FEW003 SCT005 BKN010 
     TEMPO 2218/2221 0300 FG BKN001 BKN003 
     TEMPO 2221/2223 3000 BR FEW003 BKN005 BKN008 
     BECMG 2222/2300 33008KT 
     BECMG 2315/2318 02006KT
       
TAF RJCK 221712Z 2218/2400 21010KT 9999 FEW015 BKN030 
     TEMPO 2218/2220 20020G30KT 4000 TSRA BR BKN008 BKN025 FEW025CB 
     BECMG 2300/2302 30005KT
       
TAF RJOM 221708Z 2218/2400 12008KT 9999 FEW020 BKN045 
     BECMG 2218/2220 32015KT
       
TAF RJCM 221715Z 2218/2400 20007KT 9999 FEW020 BKN040 
     BECMG 2300/2302 35010KT 
     TEMPO 2306/2312 3000 -SHSNRA 
     BECMG 2315/2318 20006KT
       
RJOH 221800Z 28006G18KT 240V320 9999 FEW020 SCT035 BKN050 11/03 Q1013
TAF RJOH 221705Z 2218/2400 29013KT 9999 FEW020 BKN040 
     BECMG 2300/2302 29017G29KT 
     TEMPO 2306/2312 2500 -TSRAGS BR FEW008 SCT010 BKN020 FEW020CB 
     BECMG 2321/2400 22012KT
       
TAF RJFM 221710Z 2218/2400 28013KT 9999 FEW030 
     TEMPO 2300/2309 29018G28KT
       
TAF RJFU 221706Z 2218/2400 34014KT 9999 FEW030 SCT045 
     BECMG 2321/2400 13005KT
       
ROAH 221800Z 36022KT 9999 FEW018 BKN030 21/16 Q1013 RMK 1CU018 5CU030 A2994
TAF ROAH 221706Z 2218/2400 01019KT 9999 FEW030 SCT045
       
RJCC 221800Z 19011KT 9999 -SHRA FEW015 SCT025 BKN070 05/05 Q1004 RMK 1ST015 3CU025 7AC070 A2967
TAF RJCC 221705Z 2218/2400 16013KT 9999 FEW010 BKN025 
     TEMPO 2218/2220 3000 TSRA BR BKN008 BKN025 FEW025CB 
     BECMG 2220/2222 34012KT 
     TEMPO 2303/2306 34018G28KT 4000 SHRA BR FEW005 BKN008
       
RJAA 221800Z 32005KT 2400 R34L/P1800N R34R/1600VP1800N -SHRA BR FEW001 BKN002 BKN020 07/07 Q1009 NOSIG RMK 1ST001 5ST002 7CU020 A2980
TAF RJAA 221707Z 2218/2400 34010KT 4000 -SHRA BR FEW005 BKN008 
     TEMPO 2218/2300 2000 SHRA BR FEW002 BKN003 
     BECMG 2302/2304 9999 NSW FEW012 BKN030 
     BECMG 2318/2321 20005KT
       
TAF RJSN 221705Z 2218/2400 19008KT 8000 FEW020 BKN050 
     TEMPO 2221/2300 4000 SHRA BR 
     BECMG 2223/2301 30016KT 
     TEMPO 2309/2312 32025G35KT 4000 SHRA BR 
     TEMPO 2318/2400 4000 -SHRAGS BR FEW008 BKN015 FEW020CB
       
TAF RJCB 221708Z 2218/2400 17005KT 9999 FEW008 BKN025 
     TEMPO 2218/2220 3000 -TSSNRA BKN008 BKN025 FEW025CB 
     BECMG 2223/2301 35008KT
       
RJFO 221300Z 28004KT 9999 -RA FEW010 SCT050 BKN090 10/08 Q1014
TAF RJFO 221708Z 2218/2400 31014KT 9999 FEW030 SCT050 
     TEMPO 2221/2306 32017G27KT 
     BECMG 2309/2312 26008KT 
     BECMG 2315/2318 29007KT
       
RJOB 221229Z VRB02KT 1600 R07/0900VP2000U -RA BR BCFG FEW000 SCT002 BKN006 07/07 Q1013 RMK 1ST000 3ST002 5ST006 A2993 FG ALL QUAD
TAF RJOB 221705Z 2218/2400 30012KT 9999 FEW020 BKN040 
     TEMPO 2218/2220 4000 BR
       
TAF RJOO 221705Z 2218/2400 32004KT 9999 FEW020 SCT040 
     TEMPO 2218/2220 4000 -SHRA BR 
     BECMG 2222/2300 33015KT 
     TEMPO 2300/2306 33018G28KT 
     BECMG 2309/2312 26007KT
       
RJFS 221800Z 00000KT 0100 R29/0175V0300N FG VV001 07/06 Q1014
TAF RJFS 221707Z 2218/2400 07003KT 6000 FEW003 SCT005 BKN015 
     TEMPO 2218/2221 0500 FG FEW001 BKN003 BKN008 
     BECMG 2220/2222 33010KT 
     BECMG 2306/2309 27009KT
       
TAF RJSS 221706Z 2218/2400 25005KT 9999 FEW020 BKN050 
     BECMG 2301/2303 32010KT 
     BECMG 2315/2318 23005KT 
     BECMG 2321/2400 29013KT
       
RJTL 221748Z 32003KT 260V010 1600 R19/1400U -SHRA BR SCT003 BKN010 BKN020 07/07 Q1009 RMK 4ST003 5ST010 7CU020 A2981
RJNY 221744Z VRB02KT 4500 -SHRA BR FEW015 BKN025 OVC040 11/10 Q1009 RMK 1CU015 5CU025 8SC040 A2980
TAF RJOT 221709Z 2218/2400 29008KT 9999 FEW020 SCT030 BKN045
       
RJTE 221747Z 16004KT 4900 +SHRA BR FEW006 BKN012 BKN025 FEW025TCU 16/15 Q1008 RMK 2ST006 5CU012 6CU025 1TCU025 A2978 TCU OHD MOV NE
RJOS 221718Z 34005KT 8000 -SHRA FEW015 SCT025 BKN050 10/09 Q1012 RMK 1CU015 4CU025 7SC050 A2988
RJTT 221800Z 32008KT 2000 SHRA BR FEW003 BKN004 BKN010 08/08 Q1009 NOSIG RMK 1ST003 6ST004 7CU010 A2981
TAF RJTT 221705Z 2218/2400 34012KT 6000 -SHRA FEW008 BKN012 
     TEMPO 2218/2300 3000 SHRA BR FEW003 BKN005 
     TEMPO 2300/2303 4000 -SHRA BR FEW005 BKN008 
     BECMG 2318/2321 22008KT
       
TAF RJNT 221705Z 2218/2400 24006KT 8000 FEW010 BKN030 
     TEMPO 2221/2300 4000 -SHRA BR 
     TEMPO 2309/2312 4000 TSRAGS BR FEW010 BKN020 FEW030CB 
     TEMPO 2318/2400 4000 TSRAGS BR FEW008 BKN015 FEW020CB
       
RJTY 221814Z AUTO 36003KT 4SM -RA OVC016 06/05 A2987 RMK AO2 RAE02RAB14 SLPNO FZRANO $
TAF AMD RJTY 220730Z 2207/2311 VRB06KT 9999 BKN050 QNH3007INS 
     BECMG 2209/2210 17009KT 8000 -SHRA BKN025 OVC050 QNH2997INS 
     BECMG 2214/2215 20009KT 8000 -SHRA BKN015 OVC030 QNH2962INS 
     TEMPO 2215/2221 4000 SHRA BKN009 
     BECMG 2304/2305 33012KT 8000 -SHRA SCT015 BKN110 QNH2961INS 
     BECMG 2307/2308 33009KT 9999 NSW FEW030 SCT050 QNH2965INS TX12/2306Z TN04/2221Z LAST NO AMDS AFT 2209 NEXT 2421
       
ROYN 221800Z AUTO 36029KT 4800 BR FEW012 SCT017 BKN028 21/19 Q1015
RORY 221800Z AUTO 36018KT 9999 FEW019 OVC060 21/17 Q1013